createdAt,value
2023-03-15T00:02:18.568Z,3.00
2023-03-15T00:04:48.540Z,3.07
2023-03-15T00:07:21.664Z,2.87
2023-03-15T00:09:52.579Z,2.90
2023-03-15T00:15:09.292Z,3.93
2023-03-15T00:17:42.539Z,2.33
2023-03-15T00:20:17.221Z,3.10
2023-03-15T00:22:45.981Z,2.50
2023-03-15T00:27:59.091Z,2.90
2023-03-15T00:33:13.809Z,2.20
2023-03-15T00:35:47.963Z,4.57
2023-03-15T00:38:18.796Z,2.87
2023-03-15T00:40:48.512Z,2.43
2023-03-15T00:43:23.357Z,2.97
2023-03-15T00:45:54.670Z,2.63
2023-03-15T00:48:26.359Z,3.57
2023-03-15T00:51:05.963Z,1.30
2023-03-15T00:53:36.738Z,2.40
2023-03-15T00:56:12.643Z,2.03
2023-03-15T00:58:42.517Z,1.87
2023-03-15T01:01:18.915Z,1.23
2023-03-15T01:03:50.939Z,2.30
2023-03-15T01:09:08.381Z,1.83
2023-03-15T01:11:42.576Z,2.53
2023-03-15T01:14:14.045Z,1.30
2023-03-15T01:16:44.354Z,1.60
2023-03-15T01:19:15.007Z,1.17
2023-03-15T01:21:46.468Z,1.20
2023-03-15T01:24:17.421Z,1.53
2023-03-15T01:26:46.158Z,1.57
2023-03-15T01:29:15.243Z,1.63
2023-03-15T01:31:46.994Z,1.43
2023-03-15T01:34:18.969Z,1.17
2023-03-15T01:36:55.443Z,1.63
2023-03-15T01:39:31.494Z,1.00
2023-03-15T01:42:02.810Z,2.23
2023-03-15T01:44:53.303Z,2.50
2023-03-15T01:47:28.565Z,1.33
2023-03-15T01:50:06.999Z,2.30
2023-03-15T01:52:43.062Z,0.97
2023-03-15T01:58:00.739Z,2.10
2023-03-15T02:00:31.150Z,1.40
2023-03-15T02:03:19.162Z,0.80
2023-03-15T02:05:55.464Z,1.13
2023-03-15T02:08:28.405Z,1.97
2023-03-15T02:11:00.740Z,1.00
2023-03-15T02:13:33.340Z,1.07
2023-03-15T02:18:49.604Z,1.17
2023-03-15T02:21:36.329Z,0.90
2023-03-15T02:24:44.157Z,1.77
2023-03-15T02:27:17.357Z,2.07
2023-03-15T02:29:49.075Z,1.07
2023-03-15T02:32:19.841Z,1.17
2023-03-15T02:34:51.441Z,1.00
2023-03-15T02:37:22.091Z,1.40
2023-03-15T02:39:54.595Z,1.30
2023-03-15T02:42:27.912Z,1.00
2023-03-15T02:45:00.129Z,1.67
2023-03-15T02:47:35.620Z,1.07
2023-03-15T02:50:05.467Z,1.43
2023-03-15T02:52:34.927Z,1.30
2023-03-15T02:55:05.273Z,0.73
2023-03-15T02:57:37.780Z,1.73
2023-03-15T03:02:57.577Z,1.47
2023-03-15T03:05:26.395Z,1.20
2023-03-15T03:07:57.177Z,0.70
2023-03-15T03:10:28.354Z,1.40
2023-03-15T03:12:57.620Z,1.10
2023-03-15T03:15:24.811Z,1.53
2023-03-15T03:17:57.868Z,1.13
2023-03-15T03:20:29.236Z,0.93
2023-03-15T03:23:00.400Z,1.13
2023-03-15T03:25:30.081Z,1.13
2023-03-15T03:28:01.131Z,1.53
2023-03-15T03:30:33.799Z,0.93
2023-03-15T03:33:05.365Z,1.03
2023-03-15T03:35:36.384Z,1.93
2023-03-15T03:38:06.578Z,1.33
2023-03-15T03:40:39.757Z,1.23
2023-03-15T03:43:11.772Z,1.30
2023-03-15T03:45:38.685Z,1.50
2023-03-15T03:48:07.006Z,1.20
2023-03-15T03:50:36.678Z,0.60
2023-03-15T03:53:06.975Z,0.90
2023-03-15T03:55:36.991Z,1.03
2023-03-15T03:58:07.353Z,1.07
2023-03-15T04:00:36.745Z,0.80
2023-03-15T04:03:05.897Z,1.07
2023-03-15T04:05:40.227Z,0.70
2023-03-15T04:08:12.228Z,1.93
2023-03-15T04:10:45.236Z,0.97
2023-03-15T04:13:15.627Z,1.27
2023-03-15T04:15:42.680Z,1.67
2023-03-15T04:18:15.723Z,1.33
2023-03-15T04:20:49.686Z,1.10
2023-03-15T04:23:22.595Z,1.50
2023-03-15T04:26:07.684Z,0.60
2023-03-15T04:28:43.496Z,0.80
2023-03-15T04:31:16.906Z,0.50
2023-03-15T04:33:47.278Z,0.77
2023-03-15T04:36:21.213Z,3.10
2023-03-15T04:39:07.366Z,1.23
2023-03-15T04:41:39.467Z,0.90
2023-03-15T04:44:11.532Z,1.30
2023-03-15T04:46:41.864Z,0.90
2023-03-15T04:49:10.662Z,0.60
2023-03-15T04:51:40.176Z,0.50
2023-03-15T04:54:12.929Z,0.93
2023-03-15T04:56:51.474Z,0.80
2023-03-15T04:59:20.788Z,0.40
2023-03-15T05:01:52.968Z,1.00
2023-03-15T05:04:29.318Z,1.30
2023-03-15T05:06:59.618Z,0.90
2023-03-15T05:09:30.162Z,1.37
2023-03-15T05:11:58.568Z,1.00
2023-03-15T05:14:30.003Z,1.17
2023-03-15T05:17:01.752Z,1.00
2023-03-15T05:19:42.599Z,1.03
2023-03-15T05:22:12.947Z,0.57
2023-03-15T05:24:44.273Z,0.70
2023-03-15T05:27:33.843Z,0.67
2023-03-15T05:30:05.395Z,0.70
2023-03-15T05:32:47.676Z,0.60
2023-03-15T05:35:15.894Z,0.60
2023-03-15T05:37:46.387Z,0.83
2023-03-15T05:40:17.728Z,0.53
2023-03-15T05:42:49.444Z,1.97
2023-03-15T05:45:17.073Z,1.77
2023-03-15T05:47:58.224Z,0.77
2023-03-15T05:50:30.466Z,0.80
2023-03-15T05:53:02.484Z,0.93
2023-03-15T05:55:34.567Z,0.80
2023-03-15T05:58:07.061Z,1.90
2023-03-15T06:00:37.020Z,1.00
2023-03-15T06:03:07.127Z,1.03
2023-03-15T06:05:37.966Z,0.67
2023-03-15T06:08:08.145Z,1.00
2023-03-15T06:10:40.152Z,2.37
2023-03-15T06:13:17.851Z,1.07
2023-03-15T06:15:51.301Z,1.33
2023-03-15T06:18:20.840Z,2.30
2023-03-15T06:20:53.058Z,0.70
2023-03-15T06:23:24.461Z,1.43
2023-03-15T06:25:54.634Z,2.20
2023-03-15T06:28:23.718Z,0.97
2023-03-15T06:30:55.031Z,0.97
2023-03-15T06:33:30.277Z,0.80
2023-03-15T06:36:01.935Z,0.63
2023-03-15T06:38:31.598Z,1.10
2023-03-15T06:41:05.312Z,1.50
2023-03-15T06:43:35.274Z,1.53
2023-03-15T06:46:04.394Z,1.13
2023-03-15T06:48:31.566Z,3.33
2023-03-15T06:51:02.067Z,1.10
2023-03-15T06:53:33.801Z,2.53
2023-03-15T06:56:01.657Z,1.43
2023-03-15T06:58:33.128Z,1.40
2023-03-15T07:03:44.731Z,1.93
2023-03-15T07:06:16.037Z,3.03
2023-03-15T07:08:46.000Z,3.83
2023-03-15T07:11:16.352Z,1.53
2023-03-15T07:13:43.988Z,1.83
2023-03-15T07:16:12.691Z,2.50
2023-03-15T07:18:40.753Z,1.03
2023-03-15T07:21:13.269Z,2.23
2023-03-15T07:23:41.622Z,1.70
2023-03-15T07:26:16.326Z,1.60
2023-03-15T07:28:45.138Z,1.40
2023-03-15T07:31:13.989Z,1.73
2023-03-15T07:33:44.373Z,12.47
2023-03-15T07:36:13.672Z,56.53
2023-03-15T07:38:43.292Z,52.97
2023-03-15T07:41:14.602Z,56.80
2023-03-15T07:43:44.819Z,49.03
2023-03-15T07:49:02.098Z,40.63
2023-03-15T07:51:32.895Z,40.20
2023-03-15T07:54:04.135Z,33.73
2023-03-15T07:56:30.865Z,25.57
2023-03-15T07:59:02.357Z,21.80
2023-03-15T08:01:31.436Z,24.37
2023-03-15T08:04:05.289Z,22.93
2023-03-15T08:06:37.278Z,18.37
2023-03-15T08:09:10.001Z,17.13
2023-03-15T08:11:42.103Z,13.40
2023-03-15T08:14:13.689Z,14.13
2023-03-15T08:16:45.118Z,16.57
2023-03-15T08:19:14.344Z,16.33
2023-03-15T08:21:49.844Z,12.30
2023-03-15T08:24:20.998Z,13.13
2023-03-15T08:29:31.106Z,10.03
2023-03-15T08:32:03.080Z,10.50
2023-03-15T08:34:35.271Z,10.47
2023-03-15T08:37:06.130Z,7.97
2023-03-15T08:39:32.841Z,6.10
2023-03-15T08:42:07.709Z,10.20
2023-03-15T08:44:38.032Z,9.57
2023-03-15T08:47:06.238Z,5.73
2023-03-15T08:49:37.104Z,8.07
2023-03-15T08:52:09.002Z,9.20
2023-03-15T08:57:20.844Z,7.03
2023-03-15T08:59:52.710Z,8.27
2023-03-15T09:02:24.798Z,8.83
2023-03-15T09:04:54.299Z,7.40
2023-03-15T09:07:24.938Z,7.33
2023-03-15T09:09:56.965Z,8.30
2023-03-15T09:12:27.712Z,5.57
2023-03-15T09:14:58.196Z,6.87
2023-03-15T09:17:30.363Z,7.03
2023-03-15T09:20:02.166Z,5.10
2023-03-15T09:22:39.131Z,7.10
2023-03-15T09:25:09.544Z,10.07
2023-03-15T09:27:43.939Z,4.93
2023-03-15T09:30:12.258Z,6.07
2023-03-15T09:32:44.685Z,5.63
2023-03-15T09:35:23.287Z,5.27
2023-03-15T09:40:51.965Z,5.30
2023-03-15T09:44:07.478Z,5.60
2023-03-15T09:46:52.745Z,5.00
2023-03-15T09:49:27.743Z,7.33
2023-03-15T09:52:14.565Z,4.20
2023-03-15T09:55:14.045Z,3.17
2023-03-15T09:58:00.103Z,2.63
2023-03-15T10:00:57.914Z,2.53
2023-03-15T10:03:58.786Z,3.63
2023-03-15T10:06:38.699Z,4.63
2023-03-15T10:09:16.628Z,2.53
2023-03-15T10:12:08.172Z,4.43
2023-03-15T10:14:52.566Z,2.97
2023-03-15T10:18:07.446Z,2.73
2023-03-15T10:20:45.152Z,3.10
2023-03-15T10:23:36.559Z,5.73
2023-03-15T10:26:12.128Z,4.67
2023-03-15T10:28:47.622Z,1.90
2023-03-15T10:31:41.389Z,3.03
2023-03-15T10:34:17.997Z,2.80
2023-03-15T10:36:53.506Z,1.80
2023-03-15T10:39:25.025Z,1.70
2023-03-15T10:41:59.060Z,2.90
2023-03-15T10:44:29.379Z,3.00
2023-03-15T10:47:22.433Z,2.83
2023-03-15T10:50:04.241Z,1.47
2023-03-15T10:52:41.287Z,1.93
2023-03-15T10:55:19.314Z,1.80
2023-03-15T10:58:00.133Z,1.70
2023-03-15T11:00:37.215Z,1.87
2023-03-15T11:03:24.450Z,1.30
2023-03-15T11:05:58.989Z,2.93
2023-03-15T11:08:44.900Z,3.57
2023-03-15T11:11:15.903Z,1.50
2023-03-15T11:14:06.200Z,1.77
2023-03-15T11:16:41.427Z,2.27
2023-03-15T11:19:18.270Z,2.50
2023-03-15T11:21:53.746Z,2.20
2023-03-15T11:24:31.906Z,1.63
2023-03-15T11:30:06.303Z,2.20
2023-03-15T11:32:39.264Z,1.77
2023-03-15T11:35:31.261Z,2.63
2023-03-15T11:38:15.666Z,1.90
2023-03-15T11:40:51.665Z,2.23
2023-03-15T11:43:30.094Z,1.97
2023-03-15T11:46:12.966Z,1.27
2023-03-15T11:48:46.844Z,1.60
2023-03-15T11:51:15.241Z,2.70
2023-03-15T11:54:17.693Z,1.43
2023-03-15T11:57:28.409Z,1.83
2023-03-15T12:00:26.563Z,2.17
2023-03-15T12:03:08.173Z,0.80
2023-03-15T12:06:02.083Z,3.00
2023-03-15T12:09:00.917Z,1.20
2023-03-15T12:11:36.111Z,2.70
2023-03-15T12:14:25.262Z,0.80
2023-03-15T12:16:59.171Z,1.57
2023-03-15T12:19:56.120Z,1.30
2023-03-15T12:22:28.225Z,1.87
2023-03-15T12:25:01.539Z,2.17
2023-03-15T12:27:30.874Z,2.23
2023-03-15T12:30:02.856Z,2.33
2023-03-15T12:32:57.262Z,2.53
2023-03-15T12:35:42.553Z,2.37
2023-03-15T12:38:26.605Z,1.53
2023-03-15T12:40:58.609Z,1.30
2023-03-15T12:43:48.753Z,1.80
2023-03-15T12:46:45.112Z,2.13
2023-03-15T12:49:38.604Z,0.97
2023-03-15T12:52:48.410Z,3.73
2023-03-15T12:55:22.050Z,1.50
2023-03-15T12:57:56.601Z,2.80
2023-03-15T13:00:32.655Z,1.13
2023-03-15T13:03:17.407Z,0.80
2023-03-15T13:06:27.187Z,1.87
2023-03-15T13:09:33.970Z,1.60
2023-03-15T13:12:17.950Z,1.80
2023-03-15T13:15:03.555Z,2.33
2023-03-15T13:17:55.542Z,1.57
2023-03-15T13:20:55.083Z,2.20
2023-03-15T13:23:34.566Z,1.80
2023-03-15T13:26:03.624Z,2.17
2023-03-15T13:28:53.596Z,1.37
2023-03-15T13:31:29.996Z,2.00
2023-03-15T13:34:25.655Z,1.30
2023-03-15T13:37:06.547Z,1.00
2023-03-15T13:39:35.143Z,1.10
2023-03-15T13:42:20.240Z,1.23
2023-03-15T13:44:48.791Z,1.27
2023-03-15T13:50:08.206Z,1.70
2023-03-15T13:55:23.326Z,2.87
2023-03-15T13:58:04.559Z,1.53
2023-03-15T14:00:37.078Z,2.70
2023-03-15T14:03:16.213Z,3.03
2023-03-15T14:05:58.497Z,0.90
2023-03-15T14:08:42.260Z,2.87
2023-03-15T14:11:19.980Z,1.63
2023-03-15T14:14:00.846Z,1.07
2023-03-15T14:17:03.590Z,0.60
2023-03-15T14:19:37.807Z,1.20
2023-03-15T14:22:23.797Z,1.73
2023-03-15T14:24:54.070Z,2.17
2023-03-15T14:27:27.636Z,1.20
2023-03-15T14:30:01.712Z,5.63
2023-03-15T14:32:47.007Z,0.57
2023-03-15T14:35:37.842Z,2.93
2023-03-15T14:38:26.652Z,1.50
2023-03-15T14:41:12.642Z,1.17
2023-03-15T14:43:42.401Z,1.30
2023-03-15T14:46:15.062Z,3.97
2023-03-15T14:48:46.939Z,1.50
2023-03-15T14:51:24.406Z,1.00
2023-03-15T14:53:56.988Z,4.33
2023-03-15T14:56:27.313Z,1.40
2023-03-15T14:58:57.566Z,0.80
2023-03-15T15:01:31.486Z,1.93
2023-03-15T15:04:05.450Z,1.87
2023-03-15T15:09:33.887Z,1.70
2023-03-15T15:12:05.373Z,2.13
2023-03-15T15:14:36.695Z,0.83
2023-03-15T15:17:07.837Z,1.20
2023-03-15T15:19:42.735Z,0.53
2023-03-15T15:22:25.178Z,0.83
2023-03-15T15:24:59.326Z,1.30
2023-03-15T15:27:30.744Z,1.23
2023-03-15T15:30:02.135Z,1.27
2023-03-15T15:32:35.997Z,1.00
2023-03-15T15:35:12.688Z,1.57
2023-03-15T15:37:42.013Z,1.70
2023-03-15T15:40:28.164Z,0.70
2023-03-15T15:42:59.211Z,12.23
2023-03-15T15:45:31.167Z,1.13
2023-03-15T15:48:06.681Z,1.67
2023-03-15T15:50:38.429Z,1.40
2023-03-15T15:53:09.702Z,0.80
2023-03-15T15:55:44.294Z,0.77
2023-03-15T15:58:15.753Z,1.57
2023-03-15T16:00:47.318Z,1.97
2023-03-15T16:03:15.728Z,1.87
2023-03-15T16:05:44.998Z,1.23
2023-03-15T16:08:24.919Z,1.97
2023-03-15T16:10:54.027Z,1.87
2023-03-15T16:13:29.322Z,1.17
2023-03-15T16:16:01.218Z,2.10
2023-03-15T16:18:33.101Z,1.43
2023-03-15T16:21:03.630Z,2.77
2023-03-15T16:23:36.205Z,1.20
2023-03-15T16:26:07.657Z,1.70
2023-03-15T16:28:39.161Z,1.30
2023-03-15T16:31:10.552Z,3.17
2023-03-15T16:33:41.168Z,2.87
2023-03-15T16:36:22.036Z,1.33
2023-03-15T16:38:55.672Z,3.47
2023-03-15T16:41:27.307Z,1.93
2023-03-15T16:43:59.160Z,1.47
2023-03-15T16:46:30.296Z,3.17
2023-03-15T16:49:06.928Z,1.47
2023-03-15T16:51:42.616Z,1.60
2023-03-15T16:54:24.377Z,1.00
2023-03-15T16:57:00.474Z,2.07
2023-03-15T16:59:34.010Z,2.63
2023-03-15T17:02:02.925Z,1.67
2023-03-15T17:04:33.260Z,1.97
2023-03-15T17:07:08.524Z,1.13
2023-03-15T17:09:39.347Z,1.63
2023-03-15T17:12:22.982Z,2.07
2023-03-15T17:14:54.887Z,0.93
2023-03-15T17:17:23.662Z,1.77
2023-03-15T17:19:53.982Z,2.70
2023-03-15T17:22:23.662Z,2.97
2023-03-15T17:24:51.779Z,2.23
2023-03-15T17:27:44.788Z,2.87
2023-03-15T17:30:20.281Z,3.07
2023-03-15T17:32:58.582Z,2.10
2023-03-15T17:36:22.222Z,1.93
2023-03-15T17:38:56.994Z,1.00
2023-03-15T17:44:19.183Z,2.07
2023-03-15T17:46:49.259Z,3.53
2023-03-15T17:49:21.551Z,3.80
2023-03-15T17:51:53.706Z,1.33
2023-03-15T17:54:27.228Z,7.80
2023-03-15T17:57:03.594Z,2.57
2023-03-15T17:59:33.994Z,1.73
2023-03-15T18:02:04.081Z,3.00
2023-03-15T18:04:33.109Z,1.33
2023-03-15T18:07:04.816Z,1.50
2023-03-15T18:09:35.383Z,3.27
2023-03-15T18:12:06.465Z,1.40
2023-03-15T18:14:40.223Z,2.03
2023-03-15T18:17:14.064Z,1.47
2023-03-15T18:19:46.004Z,3.67
2023-03-15T18:22:17.975Z,1.90
2023-03-15T18:24:47.429Z,2.70
2023-03-15T18:27:19.484Z,4.47
2023-03-15T18:29:49.553Z,2.87
2023-03-15T18:32:20.855Z,2.00
2023-03-15T18:34:52.288Z,4.57
2023-03-15T18:37:22.391Z,2.73
2023-03-15T18:39:52.979Z,4.40
2023-03-15T18:42:23.806Z,2.87
2023-03-15T18:44:53.332Z,4.50
2023-03-15T18:47:22.091Z,2.40
2023-03-15T18:49:58.199Z,5.33
2023-03-15T18:52:34.938Z,5.40
2023-03-15T18:55:06.848Z,1.53
2023-03-15T18:57:39.791Z,2.33
2023-03-15T19:00:37.609Z,3.03
2023-03-15T19:03:09.942Z,1.90
2023-03-15T19:05:40.956Z,3.03
2023-03-15T19:08:10.782Z,3.10
2023-03-15T19:10:38.974Z,2.83
2023-03-15T19:13:08.256Z,2.67
2023-03-15T19:15:40.530Z,2.07
2023-03-15T19:18:10.576Z,2.63
2023-03-15T19:20:41.056Z,2.77
2023-03-15T19:23:08.823Z,3.67
2023-03-15T19:25:38.850Z,2.33
2023-03-15T19:28:07.712Z,2.07
2023-03-15T19:30:37.257Z,3.20
2023-03-15T19:33:04.626Z,3.43
2023-03-15T19:35:38.142Z,2.20
2023-03-15T19:38:06.769Z,4.57
2023-03-15T19:40:41.202Z,1.93
2023-03-15T19:43:11.728Z,3.53
2023-03-15T19:45:42.883Z,2.10
2023-03-15T19:48:16.121Z,2.33
2023-03-15T19:50:44.861Z,2.57
2023-03-15T19:53:15.100Z,2.77
2023-03-15T19:55:46.940Z,2.77
2023-03-15T19:58:17.357Z,2.90
2023-03-15T20:00:45.706Z,2.07
2023-03-15T20:03:20.012Z,2.00
2023-03-15T20:05:51.632Z,1.57
2023-03-15T20:08:26.442Z,4.03
2023-03-15T20:11:04.936Z,2.00
2023-03-15T20:13:38.821Z,2.23
2023-03-15T20:16:07.606Z,4.93
2023-03-15T20:18:42.803Z,2.40
2023-03-15T20:21:09.996Z,2.43
2023-03-15T20:23:40.710Z,2.17
2023-03-15T20:26:13.772Z,2.10
2023-03-15T20:28:46.312Z,1.77
2023-03-15T20:31:18.233Z,2.50
2023-03-15T20:33:51.729Z,1.83
2023-03-15T20:36:24.106Z,2.57
2023-03-15T20:38:55.064Z,4.83
2023-03-15T20:41:26.496Z,2.10
2023-03-15T20:43:57.192Z,2.17
2023-03-15T20:46:25.714Z,1.50
2023-03-15T20:48:56.036Z,1.73
2023-03-15T20:51:26.500Z,3.60
2023-03-15T20:53:55.118Z,2.47
2023-03-15T20:56:23.205Z,3.27
2023-03-15T20:58:56.880Z,2.40
2023-03-15T21:01:30.380Z,1.50
2023-03-15T21:04:00.289Z,2.13
2023-03-15T21:06:31.214Z,3.33
2023-03-15T21:11:47.265Z,4.60
2023-03-15T21:14:16.753Z,7.37
2023-03-15T21:16:47.046Z,2.37
2023-03-15T21:19:17.243Z,4.97
2023-03-15T21:21:48.489Z,6.13
2023-03-15T21:27:07.608Z,3.00
2023-03-15T21:29:39.642Z,3.37
2023-03-15T21:32:11.562Z,3.23
2023-03-15T21:34:42.258Z,2.47
2023-03-15T21:37:11.967Z,2.53
2023-03-15T21:39:43.813Z,3.73
2023-03-15T21:42:12.985Z,2.80
2023-03-15T21:44:46.755Z,2.90
2023-03-15T21:47:18.409Z,2.23
2023-03-15T21:49:47.334Z,1.60
2023-03-15T21:55:00.301Z,2.43
2023-03-15T21:57:29.118Z,2.00
2023-03-15T22:00:04.357Z,3.00
2023-03-15T22:02:34.173Z,2.70
2023-03-15T22:05:06.629Z,1.57
2023-03-15T22:07:41.130Z,1.53
2023-03-15T22:10:11.578Z,1.60
2023-03-15T22:12:42.106Z,2.53
2023-03-15T22:15:10.796Z,1.90
2023-03-15T22:17:40.908Z,1.37
2023-03-15T22:20:21.023Z,2.37
2023-03-15T22:22:53.826Z,1.97
2023-03-15T22:25:22.322Z,1.30
2023-03-15T22:28:01.632Z,1.57
2023-03-15T22:30:30.466Z,1.37
2023-03-15T22:32:59.700Z,2.03
2023-03-15T22:35:31.332Z,1.20
2023-03-15T22:38:01.220Z,2.33
2023-03-15T22:40:32.627Z,1.70
2023-03-15T22:43:03.178Z,2.07
2023-03-15T22:45:33.569Z,2.70
2023-03-15T22:48:03.059Z,2.63
2023-03-15T22:50:33.426Z,1.80
2023-03-15T22:53:04.122Z,2.20
2023-03-15T22:55:37.677Z,2.60
2023-03-15T22:58:05.524Z,2.53
2023-03-15T23:00:35.349Z,2.13
2023-03-15T23:03:07.556Z,2.30
2023-03-15T23:05:39.796Z,1.20
2023-03-15T23:08:12.306Z,1.40
2023-03-15T23:10:41.272Z,1.30
2023-03-15T23:13:13.772Z,2.67
2023-03-15T23:15:46.458Z,3.23
2023-03-15T23:18:15.768Z,2.03
2023-03-15T23:20:45.235Z,2.83
2023-03-15T23:23:16.056Z,2.23
2023-03-15T23:25:48.537Z,1.53
2023-03-15T23:28:22.346Z,2.30
2023-03-15T23:30:53.383Z,1.47
2023-03-15T23:33:21.458Z,1.27
2023-03-15T23:35:51.594Z,2.53
2023-03-15T23:38:22.250Z,2.30
2023-03-15T23:41:01.858Z,1.83
2023-03-15T23:43:31.243Z,1.80
2023-03-15T23:46:07.519Z,3.57
2023-03-15T23:48:38.627Z,1.33
2023-03-15T23:51:08.232Z,1.60
2023-03-15T23:53:40.446Z,1.80
2023-03-15T23:56:10.108Z,1.30
2023-03-15T23:58:43.057Z,2.50
